sensor_id;sensor_type;location;lat;lon;timestamp;P1;durP1;ratioP1;P2;durP2;ratioP2
11665;SDS011;5889;51.350;6.708;2023-06-22T00:00:11;11.75;;;6.60;;
11665;SDS011;5889;51.350;6.708;2023-06-22T00:02:39;9.43;;;6.20;;
11665;SDS011;5889;51.350;6.708;2023-06-22T00:05:06;11.95;;;7.10;;
11665;SDS011;5889;51.350;6.708;2023-06-22T00:07:33;7.97;;;6.47;;
11665;SDS011;5889;51.350;6.708;2023-06-22T00:10:00;10.52;;;6.70;;
11665;SDS011;5889;51.350;6.708;2023-06-22T00:12:28;10.32;;;6.70;;
11665;SDS011;5889;51.350;6.708;2023-06-22T00:14:57;11.30;;;7.38;;
11665;SDS011;5889;51.350;6.708;2023-06-22T00:17:24;12.25;;;7.13;;
11665;SDS011;5889;51.350;6.708;2023-06-22T00:19:50;11.98;;;6.82;;
11665;SDS011;5889;51.350;6.708;2023-06-22T00:22:20;12.90;;;6.82;;
11665;SDS011;5889;51.350;6.708;2023-06-22T00:24:54;9.98;;;7.63;;
11665;SDS011;5889;51.350;6.708;2023-06-22T00:27:21;8.07;;;6.90;;
11665;SDS011;5889;51.350;6.708;2023-06-22T00:29:49;8.35;;;6.60;;
11665;SDS011;5889;51.350;6.708;2023-06-22T00:32:16;11.35;;;6.85;;
11665;SDS011;5889;51.350;6.708;2023-06-22T00:34:43;11.68;;;7.68;;
11665;SDS011;5889;51.350;6.708;2023-06-22T00:37:10;10.13;;;6.70;;
11665;SDS011;5889;51.350;6.708;2023-06-22T00:39:37;10.93;;;7.30;;
11665;SDS011;5889;51.350;6.708;2023-06-22T00:42:04;13.77;;;7.63;;
11665;SDS011;5889;51.350;6.708;2023-06-22T00:44:31;9.45;;;6.93;;
11665;SDS011;5889;51.350;6.708;2023-06-22T00:47:00;10.70;;;7.57;;
11665;SDS011;5889;51.350;6.708;2023-06-22T00:49:27;8.82;;;7.53;;
11665;SDS011;5889;51.350;6.708;2023-06-22T00:51:54;12.40;;;7.18;;
11665;SDS011;5889;51.350;6.708;2023-06-22T00:54:23;8.55;;;7.28;;
11665;SDS011;5889;51.350;6.708;2023-06-22T00:56:51;11.00;;;8.20;;
11665;SDS011;5889;51.350;6.708;2023-06-22T00:59:20;8.68;;;7.22;;
11665;SDS011;5889;51.350;6.708;2023-06-22T01:01:47;9.75;;;6.93;;
11665;SDS011;5889;51.350;6.708;2023-06-22T01:04:15;11.57;;;7.88;;
11665;SDS011;5889;51.350;6.708;2023-06-22T01:06:45;10.93;;;8.00;;
11665;SDS011;5889;51.350;6.708;2023-06-22T01:09:18;10.95;;;7.95;;
11665;SDS011;5889;51.350;6.708;2023-06-22T01:11:49;13.63;;;7.60;;
11665;SDS011;5889;51.350;6.708;2023-06-22T01:14:22;11.90;;;7.50;;
11665;SDS011;5889;51.350;6.708;2023-06-22T01:16:54;11.98;;;7.25;;
11665;SDS011;5889;51.350;6.708;2023-06-22T01:19:35;16.27;;;8.40;;
11665;SDS011;5889;51.350;6.708;2023-06-22T01:22:07;8.65;;;7.25;;
11665;SDS011;5889;51.350;6.708;2023-06-22T01:24:41;9.18;;;7.75;;
11665;SDS011;5889;51.350;6.708;2023-06-22T01:27:20;10.30;;;8.00;;
11665;SDS011;5889;51.350;6.708;2023-06-22T01:30:01;12.65;;;8.82;;
11665;SDS011;5889;51.350;6.708;2023-06-22T01:32:31;9.75;;;7.95;;
11665;SDS011;5889;51.350;6.708;2023-06-22T01:35:01;10.88;;;7.53;;
11665;SDS011;5889;51.350;6.708;2023-06-22T01:37:30;10.13;;;7.90;;
11665;SDS011;5889;51.350;6.708;2023-06-22T01:40:01;9.93;;;8.00;;
11665;SDS011;5889;51.350;6.708;2023-06-22T01:42:29;12.55;;;8.63;;
11665;SDS011;5889;51.350;6.708;2023-06-22T01:44:57;13.80;;;7.95;;
11665;SDS011;5889;51.350;6.708;2023-06-22T01:47:26;11.65;;;8.52;;
11665;SDS011;5889;51.350;6.708;2023-06-22T01:49:54;13.77;;;9.02;;
11665;SDS011;5889;51.350;6.708;2023-06-22T01:52:22;11.88;;;8.43;;
11665;SDS011;5889;51.350;6.708;2023-06-22T01:54:48;10.93;;;8.50;;
11665;SDS011;5889;51.350;6.708;2023-06-22T01:57:15;11.32;;;8.95;;
11665;SDS011;5889;51.350;6.708;2023-06-22T01:59:44;15.55;;;10.82;;
11665;SDS011;5889;51.350;6.708;2023-06-22T02:02:18;10.45;;;8.60;;
11665;SDS011;5889;51.350;6.708;2023-06-22T02:04:54;15.73;;;10.20;;
11665;SDS011;5889;51.350;6.708;2023-06-22T02:07:24;13.07;;;9.80;;
11665;SDS011;5889;51.350;6.708;2023-06-22T02:09:57;13.13;;;9.38;;
11665;SDS011;5889;51.350;6.708;2023-06-22T02:12:25;15.55;;;9.57;;
11665;SDS011;5889;51.350;6.708;2023-06-22T02:14:54;11.70;;;9.45;;
11665;SDS011;5889;51.350;6.708;2023-06-22T02:17:21;14.93;;;10.25;;
11665;SDS011;5889;51.350;6.708;2023-06-22T02:19:49;12.57;;;10.07;;
11665;SDS011;5889;51.350;6.708;2023-06-22T02:22:17;13.82;;;9.23;;
11665;SDS011;5889;51.350;6.708;2023-06-22T02:24:44;14.00;;;9.40;;
11665;SDS011;5889;51.350;6.708;2023-06-22T02:27:11;13.05;;;9.95;;
11665;SDS011;5889;51.350;6.708;2023-06-22T02:29:38;15.38;;;10.32;;
11665;SDS011;5889;51.350;6.708;2023-06-22T02:32:05;16.77;;;10.15;;
11665;SDS011;5889;51.350;6.708;2023-06-22T02:34:33;15.07;;;11.07;;
11665;SDS011;5889;51.350;6.708;2023-06-22T02:37:01;12.98;;;10.23;;
11665;SDS011;5889;51.350;6.708;2023-06-22T02:39:30;15.93;;;10.82;;
11665;SDS011;5889;51.350;6.708;2023-06-22T02:41:57;15.98;;;11.02;;
11665;SDS011;5889;51.350;6.708;2023-06-22T02:44:24;15.68;;;10.40;;
11665;SDS011;5889;51.350;6.708;2023-06-22T02:46:51;12.10;;;10.10;;
11665;SDS011;5889;51.350;6.708;2023-06-22T02:49:19;16.13;;;11.25;;
11665;SDS011;5889;51.350;6.708;2023-06-22T02:51:47;15.48;;;11.32;;
11665;SDS011;5889;51.350;6.708;2023-06-22T02:54:14;14.18;;;10.00;;
11665;SDS011;5889;51.350;6.708;2023-06-22T02:56:45;15.70;;;10.60;;
11665;SDS011;5889;51.350;6.708;2023-06-22T02:59:16;13.23;;;10.65;;
11665;SDS011;5889;51.350;6.708;2023-06-22T03:01:43;15.15;;;10.45;;
11665;SDS011;5889;51.350;6.708;2023-06-22T03:04:12;15.68;;;11.38;;
11665;SDS011;5889;51.350;6.708;2023-06-22T03:06:40;16.17;;;10.57;;
11665;SDS011;5889;51.350;6.708;2023-06-22T03:09:10;13.63;;;11.00;;
11665;SDS011;5889;51.350;6.708;2023-06-22T03:11:37;16.40;;;11.63;;
11665;SDS011;5889;51.350;6.708;2023-06-22T03:14:05;15.65;;;11.15;;
11665;SDS011;5889;51.350;6.708;2023-06-22T03:16:32;15.13;;;12.10;;
11665;SDS011;5889;51.350;6.708;2023-06-22T03:18:59;16.08;;;11.27;;
11665;SDS011;5889;51.350;6.708;2023-06-22T03:21:27;15.77;;;11.85;;
11665;SDS011;5889;51.350;6.708;2023-06-22T03:23:54;17.65;;;12.50;;
11665;SDS011;5889;51.350;6.708;2023-06-22T03:26:22;18.35;;;12.10;;
11665;SDS011;5889;51.350;6.708;2023-06-22T03:28:51;15.63;;;12.05;;
11665;SDS011;5889;51.350;6.708;2023-06-22T03:31:19;19.90;;;11.82;;
11665;SDS011;5889;51.350;6.708;2023-06-22T03:33:50;15.93;;;12.15;;
11665;SDS011;5889;51.350;6.708;2023-06-22T03:36:17;16.02;;;11.77;;
11665;SDS011;5889;51.350;6.708;2023-06-22T03:38:45;13.35;;;11.50;;
11665;SDS011;5889;51.350;6.708;2023-06-22T03:41:12;15.65;;;12.55;;
11665;SDS011;5889;51.350;6.708;2023-06-22T03:43:39;18.55;;;12.77;;
11665;SDS011;5889;51.350;6.708;2023-06-22T03:46:06;19.27;;;12.20;;
11665;SDS011;5889;51.350;6.708;2023-06-22T03:48:35;16.30;;;13.18;;
11665;SDS011;5889;51.350;6.708;2023-06-22T03:51:02;18.98;;;13.30;;
11665;SDS011;5889;51.350;6.708;2023-06-22T03:53:29;16.85;;;12.30;;
11665;SDS011;5889;51.350;6.708;2023-06-22T03:55:56;15.98;;;12.63;;
11665;SDS011;5889;51.350;6.708;2023-06-22T03:58:23;19.60;;;12.63;;
11665;SDS011;5889;51.350;6.708;2023-06-22T04:00:50;13.43;;;11.95;;
11665;SDS011;5889;51.350;6.708;2023-06-22T04:03:18;17.00;;;11.63;;
11665;SDS011;5889;51.350;6.708;2023-06-22T04:05:47;13.85;;;11.57;;
11665;SDS011;5889;51.350;6.708;2023-06-22T04:08:14;15.48;;;12.52;;
11665;SDS011;5889;51.350;6.708;2023-06-22T04:10:41;19.40;;;12.27;;
11665;SDS011;5889;51.350;6.708;2023-06-22T04:13:08;20.80;;;12.95;;
11665;SDS011;5889;51.350;6.708;2023-06-22T04:15:35;16.38;;;12.63;;
11665;SDS011;5889;51.350;6.708;2023-06-22T04:18:03;17.88;;;12.52;;
11665;SDS011;5889;51.350;6.708;2023-06-22T04:20:30;18.23;;;13.55;;
11665;SDS011;5889;51.350;6.708;2023-06-22T04:22:59;18.35;;;13.35;;
11665;SDS011;5889;51.350;6.708;2023-06-22T04:25:26;20.20;;;13.35;;
11665;SDS011;5889;51.350;6.708;2023-06-22T04:27:53;17.77;;;12.25;;
11665;SDS011;5889;51.350;6.708;2023-06-22T04:30:20;15.05;;;12.98;;
11665;SDS011;5889;51.350;6.708;2023-06-22T04:32:47;16.27;;;12.40;;
11665;SDS011;5889;51.350;6.708;2023-06-22T04:35:21;16.30;;;12.88;;
11665;SDS011;5889;51.350;6.708;2023-06-22T04:37:49;17.35;;;12.70;;
11665;SDS011;5889;51.350;6.708;2023-06-22T04:40:21;15.88;;;11.18;;
11665;SDS011;5889;51.350;6.708;2023-06-22T04:42:48;15.57;;;11.63;;
11665;SDS011;5889;51.350;6.708;2023-06-22T04:45:18;18.80;;;12.55;;
11665;SDS011;5889;51.350;6.708;2023-06-22T04:47:46;19.05;;;12.57;;
11665;SDS011;5889;51.350;6.708;2023-06-22T04:50:13;13.43;;;10.98;;
11665;SDS011;5889;51.350;6.708;2023-06-22T04:52:40;14.82;;;12.15;;
11665;SDS011;5889;51.350;6.708;2023-06-22T04:55:07;18.02;;;12.75;;
11665;SDS011;5889;51.350;6.708;2023-06-22T04:57:36;15.20;;;13.10;;
11665;SDS011;5889;51.350;6.708;2023-06-22T05:00:05;18.75;;;14.43;;
11665;SDS011;5889;51.350;6.708;2023-06-22T05:02:42;20.33;;;15.13;;
11665;SDS011;5889;51.350;6.708;2023-06-22T05:05:10;18.95;;;14.98;;
11665;SDS011;5889;51.350;6.708;2023-06-22T05:07:39;18.08;;;14.48;;
11665;SDS011;5889;51.350;6.708;2023-06-22T05:10:08;16.85;;;14.75;;
11665;SDS011;5889;51.350;6.708;2023-06-22T05:12:38;22.55;;;15.68;;
11665;SDS011;5889;51.350;6.708;2023-06-22T05:15:06;23.80;;;15.60;;
11665;SDS011;5889;51.350;6.708;2023-06-22T05:17:33;19.95;;;15.05;;
11665;SDS011;5889;51.350;6.708;2023-06-22T05:20:01;19.30;;;15.30;;
11665;SDS011;5889;51.350;6.708;2023-06-22T05:22:31;20.48;;;14.52;;
11665;SDS011;5889;51.350;6.708;2023-06-22T05:24:59;16.85;;;13.98;;
11665;SDS011;5889;51.350;6.708;2023-06-22T05:27:26;19.55;;;14.48;;
11665;SDS011;5889;51.350;6.708;2023-06-22T05:29:54;18.75;;;13.43;;
11665;SDS011;5889;51.350;6.708;2023-06-22T05:32:21;15.48;;;12.52;;
11665;SDS011;5889;51.350;6.708;2023-06-22T05:34:49;17.77;;;13.73;;
11665;SDS011;5889;51.350;6.708;2023-06-22T05:37:16;17.08;;;13.80;;
11665;SDS011;5889;51.350;6.708;2023-06-22T05:39:43;16.33;;;14.00;;
11665;SDS011;5889;51.350;6.708;2023-06-22T05:42:10;17.95;;;14.10;;
11665;SDS011;5889;51.350;6.708;2023-06-22T05:44:37;18.15;;;15.05;;
11665;SDS011;5889;51.350;6.708;2023-06-22T05:47:07;17.42;;;13.95;;
11665;SDS011;5889;51.350;6.708;2023-06-22T05:49:34;15.80;;;13.35;;
11665;SDS011;5889;51.350;6.708;2023-06-22T05:52:01;17.73;;;13.25;;
11665;SDS011;5889;51.350;6.708;2023-06-22T05:54:29;18.95;;;13.48;;
11665;SDS011;5889;51.350;6.708;2023-06-22T05:56:56;14.90;;;13.25;;
11665;SDS011;5889;51.350;6.708;2023-06-22T05:59:23;16.52;;;13.55;;
11665;SDS011;5889;51.350;6.708;2023-06-22T06:01:50;17.85;;;13.77;;
11665;SDS011;5889;51.350;6.708;2023-06-22T06:04:19;18.88;;;14.18;;
11665;SDS011;5889;51.350;6.708;2023-06-22T06:06:46;16.20;;;13.23;;
11665;SDS011;5889;51.350;6.708;2023-06-22T06:09:13;16.23;;;13.50;;
11665;SDS011;5889;51.350;6.708;2023-06-22T06:11:40;16.17;;;13.57;;
11665;SDS011;5889;51.350;6.708;2023-06-22T06:14:07;20.13;;;13.82;;
11665;SDS011;5889;51.350;6.708;2023-06-22T06:16:34;17.80;;;14.18;;
11665;SDS011;5889;51.350;6.708;2023-06-22T06:19:01;20.35;;;13.98;;
11665;SDS011;5889;51.350;6.708;2023-06-22T06:21:29;13.88;;;12.15;;
11665;SDS011;5889;51.350;6.708;2023-06-22T06:23:56;17.58;;;13.60;;
11665;SDS011;5889;51.350;6.708;2023-06-22T06:26:23;18.30;;;12.50;;
11665;SDS011;5889;51.350;6.708;2023-06-22T06:28:55;16.30;;;11.63;;
11665;SDS011;5889;51.350;6.708;2023-06-22T06:31:23;15.27;;;11.45;;
11665;SDS011;5889;51.350;6.708;2023-06-22T06:33:52;14.63;;;10.93;;
11665;SDS011;5889;51.350;6.708;2023-06-22T06:36:20;13.85;;;11.07;;
11665;SDS011;5889;51.350;6.708;2023-06-22T06:38:48;13.55;;;10.80;;
11665;SDS011;5889;51.350;6.708;2023-06-22T06:41:15;15.30;;;10.57;;
11665;SDS011;5889;51.350;6.708;2023-06-22T06:43:42;15.32;;;10.68;;
11665;SDS011;5889;51.350;6.708;2023-06-22T06:46:09;13.45;;;10.75;;
11665;SDS011;5889;51.350;6.708;2023-06-22T06:48:36;17.10;;;11.00;;
11665;SDS011;5889;51.350;6.708;2023-06-22T06:51:04;13.63;;;10.55;;
11665;SDS011;5889;51.350;6.708;2023-06-22T06:53:34;13.98;;;11.32;;
11665;SDS011;5889;51.350;6.708;2023-06-22T06:56:03;15.80;;;10.63;;
11665;SDS011;5889;51.350;6.708;2023-06-22T06:58:30;16.42;;;11.30;;
11665;SDS011;5889;51.350;6.708;2023-06-22T07:00:59;14.65;;;11.70;;
11665;SDS011;5889;51.350;6.708;2023-06-22T07:03:26;23.33;;;11.98;;
11665;SDS011;5889;51.350;6.708;2023-06-22T07:05:52;15.27;;;11.52;;
11665;SDS011;5889;51.350;6.708;2023-06-22T07:08:22;16.58;;;13.27;;
11665;SDS011;5889;51.350;6.708;2023-06-22T07:10:49;18.23;;;13.27;;
11665;SDS011;5889;51.350;6.708;2023-06-22T07:13:19;17.65;;;13.15;;
11665;SDS011;5889;51.350;6.708;2023-06-22T07:15:46;22.63;;;14.57;;
11665;SDS011;5889;51.350;6.708;2023-06-22T07:18:13;18.55;;;14.48;;
11665;SDS011;5889;51.350;6.708;2023-06-22T07:20:40;17.83;;;14.43;;
11665;SDS011;5889;51.350;6.708;2023-06-22T07:23:07;22.45;;;16.05;;
11665;SDS011;5889;51.350;6.708;2023-06-22T07:25:34;18.85;;;14.50;;
11665;SDS011;5889;51.350;6.708;2023-06-22T07:28:02;21.38;;;16.90;;
11665;SDS011;5889;51.350;6.708;2023-06-22T07:30:31;20.17;;;16.48;;
11665;SDS011;5889;51.350;6.708;2023-06-22T07:32:59;20.38;;;17.50;;
11665;SDS011;5889;51.350;6.708;2023-06-22T07:35:29;18.95;;;15.85;;
11665;SDS011;5889;51.350;6.708;2023-06-22T07:37:56;24.25;;;17.58;;
11665;SDS011;5889;51.350;6.708;2023-06-22T07:40:23;24.67;;;18.45;;
11665;SDS011;5889;51.350;6.708;2023-06-22T07:42:50;22.38;;;18.48;;
11665;SDS011;5889;51.350;6.708;2023-06-22T07:45:18;33.22;;;18.67;;
11665;SDS011;5889;51.350;6.708;2023-06-22T07:47:47;25.13;;;17.67;;
11665;SDS011;5889;51.350;6.708;2023-06-22T07:50:14;22.95;;;18.27;;
11665;SDS011;5889;51.350;6.708;2023-06-22T07:52:41;22.30;;;18.77;;
11665;SDS011;5889;51.350;6.708;2023-06-22T07:55:08;22.50;;;19.02;;
11665;SDS011;5889;51.350;6.708;2023-06-22T07:57:35;23.02;;;19.38;;
11665;SDS011;5889;51.350;6.708;2023-06-22T08:00:02;26.00;;;20.30;;
11665;SDS011;5889;51.350;6.708;2023-06-22T08:02:37;24.92;;;19.80;;
11665;SDS011;5889;51.350;6.708;2023-06-22T08:05:07;22.38;;;18.85;;
11665;SDS011;5889;51.350;6.708;2023-06-22T08:07:34;20.75;;;18.50;;
11665;SDS011;5889;51.350;6.708;2023-06-22T08:10:03;20.35;;;16.85;;
11665;SDS011;5889;51.350;6.708;2023-06-22T08:12:30;25.77;;;19.48;;
11665;SDS011;5889;51.350;6.708;2023-06-22T08:15:00;24.65;;;19.50;;
11665;SDS011;5889;51.350;6.708;2023-06-22T08:17:27;22.63;;;19.80;;
11665;SDS011;5889;51.350;6.708;2023-06-22T08:19:56;22.52;;;18.70;;
11665;SDS011;5889;51.350;6.708;2023-06-22T08:22:24;24.50;;;19.25;;
11665;SDS011;5889;51.350;6.708;2023-06-22T08:24:51;23.05;;;18.95;;
11665;SDS011;5889;51.350;6.708;2023-06-22T08:27:23;20.90;;;17.73;;
11665;SDS011;5889;51.350;6.708;2023-06-22T08:29:49;22.27;;;17.20;;
11665;SDS011;5889;51.350;6.708;2023-06-22T08:32:21;17.30;;;14.43;;
11665;SDS011;5889;51.350;6.708;2023-06-22T08:34:49;23.60;;;17.63;;
11665;SDS011;5889;51.350;6.708;2023-06-22T08:37:16;25.55;;;17.27;;
11665;SDS011;5889;51.350;6.708;2023-06-22T08:39:56;23.05;;;16.55;;
11665;SDS011;5889;51.350;6.708;2023-06-22T08:42:25;20.02;;;17.33;;
11665;SDS011;5889;51.350;6.708;2023-06-22T08:44:52;23.42;;;17.98;;
11665;SDS011;5889;51.350;6.708;2023-06-22T08:47:19;21.23;;;16.95;;
11665;SDS011;5889;51.350;6.708;2023-06-22T08:49:48;21.10;;;17.85;;
11665;SDS011;5889;51.350;6.708;2023-06-22T08:52:15;21.38;;;18.00;;
11665;SDS011;5889;51.350;6.708;2023-06-22T08:54:44;19.80;;;16.85;;
11665;SDS011;5889;51.350;6.708;2023-06-22T08:57:13;21.95;;;17.63;;
11665;SDS011;5889;51.350;6.708;2023-06-22T08:59:41;20.30;;;17.70;;
11665;SDS011;5889;51.350;6.708;2023-06-22T09:02:07;18.77;;;16.55;;
11665;SDS011;5889;51.350;6.708;2023-06-22T09:04:35;20.35;;;16.95;;
11665;SDS011;5889;51.350;6.708;2023-06-22T09:07:02;20.52;;;16.33;;
11665;SDS011;5889;51.350;6.708;2023-06-22T09:09:29;23.48;;;17.35;;
11665;SDS011;5889;51.350;6.708;2023-06-22T09:11:56;18.88;;;16.77;;
11665;SDS011;5889;51.350;6.708;2023-06-22T09:14:27;21.90;;;17.88;;
11665;SDS011;5889;51.350;6.708;2023-06-22T09:16:54;24.17;;;18.05;;
11665;SDS011;5889;51.350;6.708;2023-06-22T09:19:21;22.35;;;17.30;;
11665;SDS011;5889;51.350;6.708;2023-06-22T09:21:48;26.38;;;19.63;;
11665;SDS011;5889;51.350;6.708;2023-06-22T09:24:15;24.52;;;18.67;;
11665;SDS011;5889;51.350;6.708;2023-06-22T09:26:42;21.00;;;18.10;;
11665;SDS011;5889;51.350;6.708;2023-06-22T09:29:09;24.35;;;19.50;;
11665;SDS011;5889;51.350;6.708;2023-06-22T09:31:39;21.20;;;16.73;;
11665;SDS011;5889;51.350;6.708;2023-06-22T09:34:06;20.33;;;15.45;;
11665;SDS011;5889;51.350;6.708;2023-06-22T09:36:33;18.25;;;15.15;;
11665;SDS011;5889;51.350;6.708;2023-06-22T09:39:00;17.65;;;15.40;;
11665;SDS011;5889;51.350;6.708;2023-06-22T09:41:31;17.60;;;15.70;;
11665;SDS011;5889;51.350;6.708;2023-06-22T09:43:58;20.33;;;15.85;;
11665;SDS011;5889;51.350;6.708;2023-06-22T09:46:25;21.77;;;16.67;;
11665;SDS011;5889;51.350;6.708;2023-06-22T09:48:54;24.73;;;16.70;;
11665;SDS011;5889;51.350;6.708;2023-06-22T09:51:21;20.45;;;16.75;;
11665;SDS011;5889;51.350;6.708;2023-06-22T09:53:48;25.80;;;16.35;;
11665;SDS011;5889;51.350;6.708;2023-06-22T09:56:17;19.80;;;16.20;;
11665;SDS011;5889;51.350;6.708;2023-06-22T09:58:44;18.85;;;16.83;;
11665;SDS011;5889;51.350;6.708;2023-06-22T10:01:12;20.23;;;16.65;;
11665;SDS011;5889;51.350;6.708;2023-06-22T10:03:40;23.00;;;16.13;;
11665;SDS011;5889;51.350;6.708;2023-06-22T10:06:08;19.27;;;15.57;;
11665;SDS011;5889;51.350;6.708;2023-06-22T10:08:35;20.23;;;14.90;;
11665;SDS011;5889;51.350;6.708;2023-06-22T10:11:02;19.80;;;14.00;;
11665;SDS011;5889;51.350;6.708;2023-06-22T10:13:31;15.38;;;13.15;;
11665;SDS011;5889;51.350;6.708;2023-06-22T10:15:58;18.17;;;13.82;;
11665;SDS011;5889;51.350;6.708;2023-06-22T10:18:25;15.20;;;13.25;;
11665;SDS011;5889;51.350;6.708;2023-06-22T10:20:52;17.17;;;13.25;;
11665;SDS011;5889;51.350;6.708;2023-06-22T10:23:20;19.98;;;14.43;;
11665;SDS011;5889;51.350;6.708;2023-06-22T10:25:47;18.17;;;13.73;;
11665;SDS011;5889;51.350;6.708;2023-06-22T10:28:15;13.77;;;12.35;;
11665;SDS011;5889;51.350;6.708;2023-06-22T10:30:42;14.60;;;11.18;;
11665;SDS011;5889;51.350;6.708;2023-06-22T10:33:12;15.13;;;13.02;;
11665;SDS011;5889;51.350;6.708;2023-06-22T10:35:39;15.57;;;13.90;;
11665;SDS011;5889;51.350;6.708;2023-06-22T10:38:06;15.02;;;12.43;;
11665;SDS011;5889;51.350;6.708;2023-06-22T10:40:35;14.35;;;12.85;;
11665;SDS011;5889;51.350;6.708;2023-06-22T10:43:02;14.07;;;12.60;;
11665;SDS011;5889;51.350;6.708;2023-06-22T10:45:28;13.52;;;12.07;;
11665;SDS011;5889;51.350;6.708;2023-06-22T10:47:55;14.10;;;12.63;;
11665;SDS011;5889;51.350;6.708;2023-06-22T10:50:22;13.45;;;11.95;;
11665;SDS011;5889;51.350;6.708;2023-06-22T10:52:50;16.10;;;13.70;;
11665;SDS011;5889;51.350;6.708;2023-06-22T10:55:17;17.25;;;12.73;;
11665;SDS011;5889;51.350;6.708;2023-06-22T10:57:46;18.42;;;14.40;;
11665;SDS011;5889;51.350;6.708;2023-06-22T11:00:13;19.17;;;14.18;;
11665;SDS011;5889;51.350;6.708;2023-06-22T11:02:40;21.00;;;15.35;;
11665;SDS011;5889;51.350;6.708;2023-06-22T11:05:08;17.67;;;15.88;;
11665;SDS011;5889;51.350;6.708;2023-06-22T11:07:35;21.17;;;16.98;;
11665;SDS011;5889;51.350;6.708;2023-06-22T11:10:03;20.95;;;17.35;;
11665;SDS011;5889;51.350;6.708;2023-06-22T11:12:30;21.70;;;16.58;;
11665;SDS011;5889;51.350;6.708;2023-06-22T11:14:59;19.30;;;16.75;;
11665;SDS011;5889;51.350;6.708;2023-06-22T11:17:26;24.63;;;17.83;;
11665;SDS011;5889;51.350;6.708;2023-06-22T11:19:52;30.65;;;19.20;;
11665;SDS011;5889;51.350;6.708;2023-06-22T11:22:19;23.42;;;18.20;;
11665;SDS011;5889;51.350;6.708;2023-06-22T11:24:46;32.35;;;19.60;;
11665;SDS011;5889;51.350;6.708;2023-06-22T11:27:13;28.30;;;19.77;;
11665;SDS011;5889;51.350;6.708;2023-06-22T11:29:41;32.30;;;21.63;;
11665;SDS011;5889;51.350;6.708;2023-06-22T11:32:09;22.17;;;19.58;;
11665;SDS011;5889;51.350;6.708;2023-06-22T11:34:36;25.35;;;19.77;;
11665;SDS011;5889;51.350;6.708;2023-06-22T11:37:03;30.02;;;21.92;;
11665;SDS011;5889;51.350;6.708;2023-06-22T11:39:31;32.83;;;22.73;;
11665;SDS011;5889;51.350;6.708;2023-06-22T11:41:57;28.88;;;21.02;;
11665;SDS011;5889;51.350;6.708;2023-06-22T11:44:24;25.10;;;21.88;;
11665;SDS011;5889;51.350;6.708;2023-06-22T11:46:51;29.05;;;23.42;;
11665;SDS011;5889;51.350;6.708;2023-06-22T11:49:20;31.98;;;26.00;;
11665;SDS011;5889;51.350;6.708;2023-06-22T11:51:47;33.80;;;27.58;;
11665;SDS011;5889;51.350;6.708;2023-06-22T11:54:14;32.47;;;28.00;;
11665;SDS011;5889;51.350;6.708;2023-06-22T11:56:40;38.42;;;29.92;;
11665;SDS011;5889;51.350;6.708;2023-06-22T11:59:07;42.88;;;32.67;;
11665;SDS011;5889;51.350;6.708;2023-06-22T12:01:34;47.38;;;37.33;;
11665;SDS011;5889;51.350;6.708;2023-06-22T12:04:02;41.78;;;33.67;;
11665;SDS011;5889;51.350;6.708;2023-06-22T12:06:31;40.05;;;32.88;;
11665;SDS011;5889;51.350;6.708;2023-06-22T12:09:00;44.55;;;33.63;;
11665;SDS011;5889;51.350;6.708;2023-06-22T12:11:29;42.67;;;33.92;;
11665;SDS011;5889;51.350;6.708;2023-06-22T12:13:56;39.75;;;32.80;;
11665;SDS011;5889;51.350;6.708;2023-06-22T12:16:26;39.22;;;30.98;;
11665;SDS011;5889;51.350;6.708;2023-06-22T12:18:53;38.70;;;32.38;;
11665;SDS011;5889;51.350;6.708;2023-06-22T12:21:20;42.28;;;34.63;;
11665;SDS011;5889;51.350;6.708;2023-06-22T12:23:49;47.53;;;41.35;;
11665;SDS011;5889;51.350;6.708;2023-06-22T12:26:16;48.42;;;42.47;;
11665;SDS011;5889;51.350;6.708;2023-06-22T12:28:43;41.05;;;35.38;;
11665;SDS011;5889;51.350;6.708;2023-06-22T12:31:10;41.47;;;32.90;;
11665;SDS011;5889;51.350;6.708;2023-06-22T12:33:37;35.95;;;27.73;;
11665;SDS011;5889;51.350;6.708;2023-06-22T12:36:04;33.65;;;28.63;;
11665;SDS011;5889;51.350;6.708;2023-06-22T12:38:31;37.42;;;30.50;;
11665;SDS011;5889;51.350;6.708;2023-06-22T12:40:59;36.83;;;31.17;;
11665;SDS011;5889;51.350;6.708;2023-06-22T12:43:26;37.28;;;29.77;;
11665;SDS011;5889;51.350;6.708;2023-06-22T12:45:53;38.30;;;30.25;;
11665;SDS011;5889;51.350;6.708;2023-06-22T12:48:21;36.75;;;30.83;;
11665;SDS011;5889;51.350;6.708;2023-06-22T12:50:48;39.50;;;30.63;;
11665;SDS011;5889;51.350;6.708;2023-06-22T12:53:17;39.70;;;32.40;;
11665;SDS011;5889;51.350;6.708;2023-06-22T12:55:43;36.25;;;30.55;;
11665;SDS011;5889;51.350;6.708;2023-06-22T12:58:12;42.03;;;33.42;;
11665;SDS011;5889;51.350;6.708;2023-06-22T13:00:39;40.85;;;33.25;;
11665;SDS011;5889;51.350;6.708;2023-06-22T13:03:06;38.30;;;30.83;;
11665;SDS011;5889;51.350;6.708;2023-06-22T13:05:33;38.33;;;31.52;;
11665;SDS011;5889;51.350;6.708;2023-06-22T13:08:01;40.83;;;33.45;;
11665;SDS011;5889;51.350;6.708;2023-06-22T13:10:28;39.17;;;33.30;;
11665;SDS011;5889;51.350;6.708;2023-06-22T13:12:55;38.83;;;32.08;;
11665;SDS011;5889;51.350;6.708;2023-06-22T13:15:27;40.33;;;32.72;;
11665;SDS011;5889;51.350;6.708;2023-06-22T13:17:54;39.63;;;32.00;;
11665;SDS011;5889;51.350;6.708;2023-06-22T13:20:22;40.95;;;31.70;;
11665;SDS011;5889;51.350;6.708;2023-06-22T13:22:49;42.30;;;33.80;;
11665;SDS011;5889;51.350;6.708;2023-06-22T13:25:16;42.78;;;33.40;;
11665;SDS011;5889;51.350;6.708;2023-06-22T13:27:45;42.35;;;34.72;;
11665;SDS011;5889;51.350;6.708;2023-06-22T13:30:12;44.22;;;35.15;;
11665;SDS011;5889;51.350;6.708;2023-06-22T13:32:40;43.10;;;35.60;;
11665;SDS011;5889;51.350;6.708;2023-06-22T13:35:08;41.22;;;35.60;;
11665;SDS011;5889;51.350;6.708;2023-06-22T13:37:36;39.55;;;33.25;;
11665;SDS011;5889;51.350;6.708;2023-06-22T13:40:04;41.45;;;34.38;;
11665;SDS011;5889;51.350;6.708;2023-06-22T13:42:32;42.00;;;34.72;;
11665;SDS011;5889;51.350;6.708;2023-06-22T13:44:58;40.78;;;34.33;;
11665;SDS011;5889;51.350;6.708;2023-06-22T13:47:25;42.95;;;35.88;;
11665;SDS011;5889;51.350;6.708;2023-06-22T13:49:54;38.78;;;33.42;;
11665;SDS011;5889;51.350;6.708;2023-06-22T13:52:21;41.67;;;34.22;;
11665;SDS011;5889;51.350;6.708;2023-06-22T13:54:48;39.15;;;34.40;;
11665;SDS011;5889;51.350;6.708;2023-06-22T13:57:15;40.95;;;34.53;;
11665;SDS011;5889;51.350;6.708;2023-06-22T13:59:41;40.65;;;35.15;;
11665;SDS011;5889;51.350;6.708;2023-06-22T14:02:08;39.10;;;32.58;;
11665;SDS011;5889;51.350;6.708;2023-06-22T14:04:35;41.95;;;33.67;;
11665;SDS011;5889;51.350;6.708;2023-06-22T14:07:04;40.17;;;34.28;;
11665;SDS011;5889;51.350;6.708;2023-06-22T14:09:31;39.92;;;33.65;;
11665;SDS011;5889;51.350;6.708;2023-06-22T14:12:01;36.75;;;32.75;;
11665;SDS011;5889;51.350;6.708;2023-06-22T14:14:30;38.00;;;33.00;;
11665;SDS011;5889;51.350;6.708;2023-06-22T14:16:57;38.25;;;32.80;;
11665;SDS011;5889;51.350;6.708;2023-06-22T14:19:24;38.08;;;33.35;;
11665;SDS011;5889;51.350;6.708;2023-06-22T14:21:51;37.00;;;31.10;;
11665;SDS011;5889;51.350;6.708;2023-06-22T14:24:19;35.92;;;31.90;;
11665;SDS011;5889;51.350;6.708;2023-06-22T14:26:46;36.25;;;32.33;;
11665;SDS011;5889;51.350;6.708;2023-06-22T14:29:13;37.30;;;31.85;;
11665;SDS011;5889;51.350;6.708;2023-06-22T14:31:40;34.80;;;31.00;;
11665;SDS011;5889;51.350;6.708;2023-06-22T14:34:12;38.20;;;32.72;;
11665;SDS011;5889;51.350;6.708;2023-06-22T14:36:39;37.63;;;31.92;;
11665;SDS011;5889;51.350;6.708;2023-06-22T14:39:06;36.83;;;31.02;;
11665;SDS011;5889;51.350;6.708;2023-06-22T14:41:35;35.10;;;30.48;;